sensor_id;sensor_type;location;lat;lon;timestamp;temperature;humidity
7388;DHT22;3735;50.136;11.062;2023-06-24T00:00:06;14.00;99.90
7388;DHT22;3735;50.136;11.062;2023-06-24T00:02:34;13.90;99.90
7388;DHT22;3735;50.136;11.062;2023-06-24T00:05:03;14.00;99.90
7388;DHT22;3735;50.136;11.062;2023-06-24T00:07:30;13.90;99.90
7388;DHT22;3735;50.136;11.062;2023-06-24T00:09:55;13.90;99.90
7388;DHT22;3735;50.136;11.062;2023-06-24T00:12:21;13.90;99.90
7388;DHT22;3735;50.136;11.062;2023-06-24T00:14:48;13.90;99.90
7388;DHT22;3735;50.136;11.062;2023-06-24T00:17:15;13.90;99.90
7388;DHT22;3735;50.136;11.062;2023-06-24T00:19:44;13.90;99.90
7388;DHT22;3735;50.136;11.062;2023-06-24T00:22:09;13.80;99.90
7388;DHT22;3735;50.136;11.062;2023-06-24T00:24:35;13.80;99.90
7388;DHT22;3735;50.136;11.062;2023-06-24T00:27:01;13.70;99.90
7388;DHT22;3735;50.136;11.062;2023-06-24T00:29:27;13.70;99.90
7388;DHT22;3735;50.136;11.062;2023-06-24T00:31:53;13.60;99.90
7388;DHT22;3735;50.136;11.062;2023-06-24T00:34:18;13.60;99.90
7388;DHT22;3735;50.136;11.062;2023-06-24T00:36:49;13.50;99.90
7388;DHT22;3735;50.136;11.062;2023-06-24T00:39:14;13.50;99.90
7388;DHT22;3735;50.136;11.062;2023-06-24T00:41:40;13.40;99.90
7388;DHT22;3735;50.136;11.062;2023-06-24T00:44:06;13.50;99.90
7388;DHT22;3735;50.136;11.062;2023-06-24T00:46:32;13.50;99.90
7388;DHT22;3735;50.136;11.062;2023-06-24T00:48:58;13.50;99.90
7388;DHT22;3735;50.136;11.062;2023-06-24T00:51:26;13.50;99.90
7388;DHT22;3735;50.136;11.062;2023-06-24T00:53:56;13.50;99.90
7388;DHT22;3735;50.136;11.062;2023-06-24T00:56:28;13.60;99.90
7388;DHT22;3735;50.136;11.062;2023-06-24T00:58:58;13.50;99.90
7388;DHT22;3735;50.136;11.062;2023-06-24T01:01:28;13.40;99.90
7388;DHT22;3735;50.136;11.062;2023-06-24T01:03:59;13.30;99.90
7388;DHT22;3735;50.136;11.062;2023-06-24T01:06:27;13.30;99.90
7388;DHT22;3735;50.136;11.062;2023-06-24T01:08:57;13.20;99.90
7388;DHT22;3735;50.136;11.062;2023-06-24T01:11:26;13.10;99.90
7388;DHT22;3735;50.136;11.062;2023-06-24T01:13:52;13.10;99.90
7388;DHT22;3735;50.136;11.062;2023-06-24T01:16:30;13.10;99.90
7388;DHT22;3735;50.136;11.062;2023-06-24T01:19:15;13.00;99.90
7388;DHT22;3735;50.136;11.062;2023-06-24T01:25:20;12.90;99.90
7388;DHT22;3735;50.136;11.062;2023-06-24T01:33:10;12.80;99.90
7388;DHT22;3735;50.136;11.062;2023-06-24T01:35:41;12.70;99.90
7388;DHT22;3735;50.136;11.062;2023-06-24T01:38:58;12.60;99.90
7388;DHT22;3735;50.136;11.062;2023-06-24T01:41:17;12.60;99.90
7388;DHT22;3735;50.136;11.062;2023-06-24T01:43:47;12.60;99.90
7388;DHT22;3735;50.136;11.062;2023-06-24T01:46:21;12.50;99.90
7388;DHT22;3735;50.136;11.062;2023-06-24T01:48:48;12.60;99.90
7388;DHT22;3735;50.136;11.062;2023-06-24T01:51:19;12.60;99.90
7388;DHT22;3735;50.136;11.062;2023-06-24T01:53:53;12.60;99.90
7388;DHT22;3735;50.136;11.062;2023-06-24T01:56:26;12.60;99.90
7388;DHT22;3735;50.136;11.062;2023-06-24T01:58:55;12.60;99.90
7388;DHT22;3735;50.136;11.062;2023-06-24T02:01:24;12.50;99.90
7388;DHT22;3735;50.136;11.062;2023-06-24T02:03:51;12.40;99.90
7388;DHT22;3735;50.136;11.062;2023-06-24T02:06:19;12.40;99.90
7388;DHT22;3735;50.136;11.062;2023-06-24T02:08:48;12.40;99.90
7388;DHT22;3735;50.136;11.062;2023-06-24T02:11:17;12.40;99.90
7388;DHT22;3735;50.136;11.062;2023-06-24T02:13:44;12.50;99.90
7388;DHT22;3735;50.136;11.062;2023-06-24T02:16:11;12.50;99.90
7388;DHT22;3735;50.136;11.062;2023-06-24T02:18:40;12.50;99.90
7388;DHT22;3735;50.136;11.062;2023-06-24T02:21:09;12.50;99.90
7388;DHT22;3735;50.136;11.062;2023-06-24T02:23:37;12.60;99.90
7388;DHT22;3735;50.136;11.062;2023-06-24T02:26:04;12.70;99.90
7388;DHT22;3735;50.136;11.062;2023-06-24T02:28:33;12.80;99.90
7388;DHT22;3735;50.136;11.062;2023-06-24T02:31:00;12.90;99.90
7388;DHT22;3735;50.136;11.062;2023-06-24T02:33:26;13.00;99.90
7388;DHT22;3735;50.136;11.062;2023-06-24T02:35:53;13.10;99.90
7388;DHT22;3735;50.136;11.062;2023-06-24T02:38:18;13.10;99.90
7388;DHT22;3735;50.136;11.062;2023-06-24T02:40:47;13.20;99.90
7388;DHT22;3735;50.136;11.062;2023-06-24T02:43:14;13.30;99.90
7388;DHT22;3735;50.136;11.062;2023-06-24T02:45:41;13.30;99.90
7388;DHT22;3735;50.136;11.062;2023-06-24T02:48:08;13.30;99.90
7388;DHT22;3735;50.136;11.062;2023-06-24T02:50:37;13.40;99.90
7388;DHT22;3735;50.136;11.062;2023-06-24T02:53:07;13.40;99.90
7388;DHT22;3735;50.136;11.062;2023-06-24T02:55:33;13.40;99.90
7388;DHT22;3735;50.136;11.062;2023-06-24T02:58:01;13.30;99.90
7388;DHT22;3735;50.136;11.062;2023-06-24T03:00:28;13.30;99.90
7388;DHT22;3735;50.136;11.062;2023-06-24T03:03:00;13.20;99.90
7388;DHT22;3735;50.136;11.062;2023-06-24T03:05:27;13.20;99.90
7388;DHT22;3735;50.136;11.062;2023-06-24T03:07:54;13.20;99.90
7388;DHT22;3735;50.136;11.062;2023-06-24T03:10:20;13.20;99.90
7388;DHT22;3735;50.136;11.062;2023-06-24T03:12:48;13.20;99.90
7388;DHT22;3735;50.136;11.062;2023-06-24T03:15:14;13.20;99.90
7388;DHT22;3735;50.136;11.062;2023-06-24T03:17:40;13.20;99.90
7388;DHT22;3735;50.136;11.062;2023-06-24T03:20:06;13.20;99.90
7388;DHT22;3735;50.136;11.062;2023-06-24T03:22:34;13.20;99.90
7388;DHT22;3735;50.136;11.062;2023-06-24T03:24:59;13.30;99.90
7388;DHT22;3735;50.136;11.062;2023-06-24T03:27:25;13.20;99.90
7388;DHT22;3735;50.136;11.062;2023-06-24T03:29:51;13.20;99.90
7388;DHT22;3735;50.136;11.062;2023-06-24T03:32:17;13.20;99.90
7388;DHT22;3735;50.136;11.062;2023-06-24T03:34:42;13.30;99.90
7388;DHT22;3735;50.136;11.062;2023-06-24T03:37:08;13.40;99.90
7388;DHT22;3735;50.136;11.062;2023-06-24T03:39:34;13.50;99.90
7388;DHT22;3735;50.136;11.062;2023-06-24T03:42:00;13.50;99.90
7388;DHT22;3735;50.136;11.062;2023-06-24T03:44:26;13.60;99.90
7388;DHT22;3735;50.136;11.062;2023-06-24T03:46:52;13.60;99.90
7388;DHT22;3735;50.136;11.062;2023-06-24T03:49:18;13.60;99.90
7388;DHT22;3735;50.136;11.062;2023-06-24T03:51:43;13.50;99.90
7388;DHT22;3735;50.136;11.062;2023-06-24T03:54:09;13.50;99.90
7388;DHT22;3735;50.136;11.062;2023-06-24T03:56:35;13.50;99.90
7388;DHT22;3735;50.136;11.062;2023-06-24T03:59:01;13.50;99.90
7388;DHT22;3735;50.136;11.062;2023-06-24T04:01:27;13.50;99.90
7388;DHT22;3735;50.136;11.062;2023-06-24T04:04:00;13.50;99.90
7388;DHT22;3735;50.136;11.062;2023-06-24T04:06:25;13.50;99.90
7388;DHT22;3735;50.136;11.062;2023-06-24T04:08:51;13.60;99.90
7388;DHT22;3735;50.136;11.062;2023-06-24T04:11:18;13.60;99.90
7388;DHT22;3735;50.136;11.062;2023-06-24T04:13:47;13.60;99.90
7388;DHT22;3735;50.136;11.062;2023-06-24T04:16:14;13.60;99.90
7388;DHT22;3735;50.136;11.062;2023-06-24T04:18:40;13.70;99.90
7388;DHT22;3735;50.136;11.062;2023-06-24T04:21:06;13.70;99.90
7388;DHT22;3735;50.136;11.062;2023-06-24T04:23:32;13.70;99.90
7388;DHT22;3735;50.136;11.062;2023-06-24T04:25:59;13.70;99.90
7388;DHT22;3735;50.136;11.062;2023-06-24T04:28:24;13.80;99.90
7388;DHT22;3735;50.136;11.062;2023-06-24T04:30:51;13.80;99.90
7388;DHT22;3735;50.136;11.062;2023-06-24T04:33:17;13.80;99.90
7388;DHT22;3735;50.136;11.062;2023-06-24T04:35:43;13.90;99.90
7388;DHT22;3735;50.136;11.062;2023-06-24T04:38:10;13.90;99.90
7388;DHT22;3735;50.136;11.062;2023-06-24T04:40:36;14.10;99.90
7388;DHT22;3735;50.136;11.062;2023-06-24T04:43:02;14.20;99.90
7388;DHT22;3735;50.136;11.062;2023-06-24T04:45:28;14.30;99.90
7388;DHT22;3735;50.136;11.062;2023-06-24T04:47:54;14.40;99.90
7388;DHT22;3735;50.136;11.062;2023-06-24T04:50:19;14.50;99.90
7388;DHT22;3735;50.136;11.062;2023-06-24T04:52:45;14.60;99.90
7388;DHT22;3735;50.136;11.062;2023-06-24T04:55:16;14.60;99.90
7388;DHT22;3735;50.136;11.062;2023-06-24T04:57:42;14.60;99.90
7388;DHT22;3735;50.136;11.062;2023-06-24T05:00:08;14.70;99.90
7388;DHT22;3735;50.136;11.062;2023-06-24T05:02:34;14.70;99.90
7388;DHT22;3735;50.136;11.062;2023-06-24T05:05:00;14.60;99.90
7388;DHT22;3735;50.136;11.062;2023-06-24T05:07:26;14.70;99.90
7388;DHT22;3735;50.136;11.062;2023-06-24T05:09:51;14.80;99.90
7388;DHT22;3735;50.136;11.062;2023-06-24T05:12:17;15.00;99.90
7388;DHT22;3735;50.136;11.062;2023-06-24T05:14:43;15.10;99.90
7388;DHT22;3735;50.136;11.062;2023-06-24T05:17:09;15.10;99.90
7388;DHT22;3735;50.136;11.062;2023-06-24T05:19:34;15.20;99.90
7388;DHT22;3735;50.136;11.062;2023-06-24T05:22:00;15.20;99.90
7388;DHT22;3735;50.136;11.062;2023-06-24T05:24:26;15.20;99.90
7388;DHT22;3735;50.136;11.062;2023-06-24T05:26:51;15.40;99.90
7388;DHT22;3735;50.136;11.062;2023-06-24T05:29:18;15.50;99.90
7388;DHT22;3735;50.136;11.062;2023-06-24T05:31:44;15.60;99.90
7388;DHT22;3735;50.136;11.062;2023-06-24T05:34:10;15.60;99.90
7388;DHT22;3735;50.136;11.062;2023-06-24T05:36:35;15.90;99.90
7388;DHT22;3735;50.136;11.062;2023-06-24T05:39:01;16.20;99.90
7388;DHT22;3735;50.136;11.062;2023-06-24T05:41:27;16.40;99.90
7388;DHT22;3735;50.136;11.062;2023-06-24T05:44:03;16.60;99.90
7388;DHT22;3735;50.136;11.062;2023-06-24T05:46:30;16.60;99.90
7388;DHT22;3735;50.136;11.062;2023-06-24T05:48:56;16.80;99.90
7388;DHT22;3735;50.136;11.062;2023-06-24T05:51:22;17.00;99.90
7388;DHT22;3735;50.136;11.062;2023-06-24T05:53:48;17.10;99.90
7388;DHT22;3735;50.136;11.062;2023-06-24T05:56:14;17.30;99.90
7388;DHT22;3735;50.136;11.062;2023-06-24T05:58:39;17.40;99.90
7388;DHT22;3735;50.136;11.062;2023-06-24T06:01:07;17.50;99.90
7388;DHT22;3735;50.136;11.062;2023-06-24T06:03:34;17.60;99.90
7388;DHT22;3735;50.136;11.062;2023-06-24T06:06:00;17.80;99.90
7388;DHT22;3735;50.136;11.062;2023-06-24T06:08:26;18.10;99.90
7388;DHT22;3735;50.136;11.062;2023-06-24T06:10:51;18.30;99.90
7388;DHT22;3735;50.136;11.062;2023-06-24T06:13:17;18.60;99.90
7388;DHT22;3735;50.136;11.062;2023-06-24T06:15:43;19.30;99.90
7388;DHT22;3735;50.136;11.062;2023-06-24T06:18:08;20.30;99.90
7388;DHT22;3735;50.136;11.062;2023-06-24T06:20:34;20.90;99.90
7388;DHT22;3735;50.136;11.062;2023-06-24T06:23:00;21.70;99.90
7388;DHT22;3735;50.136;11.062;2023-06-24T06:25:26;22.90;99.90
7388;DHT22;3735;50.136;11.062;2023-06-24T06:27:51;24.20;99.90
7388;DHT22;3735;50.136;11.062;2023-06-24T06:30:17;25.30;99.90
7388;DHT22;3735;50.136;11.062;2023-06-24T06:32:43;25.40;99.90
7388;DHT22;3735;50.136;11.062;2023-06-24T06:35:09;25.50;99.90
7388;DHT22;3735;50.136;11.062;2023-06-24T06:37:34;26.10;99.90
7388;DHT22;3735;50.136;11.062;2023-06-24T06:40:00;26.90;99.90
7388;DHT22;3735;50.136;11.062;2023-06-24T06:42:27;27.40;99.90
7388;DHT22;3735;50.136;11.062;2023-06-24T06:44:52;27.60;99.90
7388;DHT22;3735;50.136;11.062;2023-06-24T06:47:18;28.00;99.90
7388;DHT22;3735;50.136;11.062;2023-06-24T06:49:44;27.80;99.90
7388;DHT22;3735;50.136;11.062;2023-06-24T06:52:10;28.00;99.90
7388;DHT22;3735;50.136;11.062;2023-06-24T06:54:35;28.30;99.90
7388;DHT22;3735;50.136;11.062;2023-06-24T06:57:02;28.60;99.90
7388;DHT22;3735;50.136;11.062;2023-06-24T06:59:30;29.00;99.90
7388;DHT22;3735;50.136;11.062;2023-06-24T07:01:56;29.30;99.90
7388;DHT22;3735;50.136;11.062;2023-06-24T07:04:22;29.60;99.90
7388;DHT22;3735;50.136;11.062;2023-06-24T07:06:48;30.00;99.90
7388;DHT22;3735;50.136;11.062;2023-06-24T07:09:14;30.10;99.90
7388;DHT22;3735;50.136;11.062;2023-06-24T07:11:41;30.30;99.90
7388;DHT22;3735;50.136;11.062;2023-06-24T07:14:07;30.60;99.90
7388;DHT22;3735;50.136;11.062;2023-06-24T07:16:33;30.80;99.90
7388;DHT22;3735;50.136;11.062;2023-06-24T07:18:59;30.80;99.90
7388;DHT22;3735;50.136;11.062;2023-06-24T07:21:25;30.90;99.90
7388;DHT22;3735;50.136;11.062;2023-06-24T07:23:50;31.20;99.90
7388;DHT22;3735;50.136;11.062;2023-06-24T07:26:16;31.40;99.90
7388;DHT22;3735;50.136;11.062;2023-06-24T07:28:42;31.40;99.90
7388;DHT22;3735;50.136;11.062;2023-06-24T07:31:08;31.40;99.90
7388;DHT22;3735;50.136;11.062;2023-06-24T07:33:33;31.30;99.90
7388;DHT22;3735;50.136;11.062;2023-06-24T07:36:00;31.60;99.90
7388;DHT22;3735;50.136;11.062;2023-06-24T07:38:28;31.70;99.90
7388;DHT22;3735;50.136;11.062;2023-06-24T07:40:55;32.00;99.90
7388;DHT22;3735;50.136;11.062;2023-06-24T07:43:21;31.60;99.90
7388;DHT22;3735;50.136;11.062;2023-06-24T07:45:47;31.50;99.90
7388;DHT22;3735;50.136;11.062;2023-06-24T07:48:13;31.70;99.90
7388;DHT22;3735;50.136;11.062;2023-06-24T07:50:39;32.20;99.90
7388;DHT22;3735;50.136;11.062;2023-06-24T07:53:04;32.50;99.90
7388;DHT22;3735;50.136;11.062;2023-06-24T07:55:31;32.20;99.90
7388;DHT22;3735;50.136;11.062;2023-06-24T07:57:57;32.40;99.90
7388;DHT22;3735;50.136;11.062;2023-06-24T08:00:24;32.70;99.90
7388;DHT22;3735;50.136;11.062;2023-06-24T08:02:50;33.60;99.90
7388;DHT22;3735;50.136;11.062;2023-06-24T08:05:16;33.90;99.90
7388;DHT22;3735;50.136;11.062;2023-06-24T08:07:44;34.10;99.90
7388;DHT22;3735;50.136;11.062;2023-06-24T08:10:10;34.10;99.90
7388;DHT22;3735;50.136;11.062;2023-06-24T08:12:35;34.00;99.90
7388;DHT22;3735;50.136;11.062;2023-06-24T08:15:02;33.90;99.90
7388;DHT22;3735;50.136;11.062;2023-06-24T08:17:28;34.10;99.90
7388;DHT22;3735;50.136;11.062;2023-06-24T08:19:53;34.00;99.90
7388;DHT22;3735;50.136;11.062;2023-06-24T08:22:19;34.30;99.90
7388;DHT22;3735;50.136;11.062;2023-06-24T08:24:45;34.50;99.90
7388;DHT22;3735;50.136;11.062;2023-06-24T08:27:11;34.60;99.90
7388;DHT22;3735;50.136;11.062;2023-06-24T08:29:36;34.30;99.90
7388;DHT22;3735;50.136;11.062;2023-06-24T08:32:04;34.30;99.90
7388;DHT22;3735;50.136;11.062;2023-06-24T08:34:32;34.90;99.90
7388;DHT22;3735;50.136;11.062;2023-06-24T08:36:58;35.00;99.90
7388;DHT22;3735;50.136;11.062;2023-06-24T08:39:24;35.40;99.90
7388;DHT22;3735;50.136;11.062;2023-06-24T08:41:50;35.30;99.90
7388;DHT22;3735;50.136;11.062;2023-06-24T08:44:16;34.70;99.90
7388;DHT22;3735;50.136;11.062;2023-06-24T08:46:42;34.00;99.90
7388;DHT22;3735;50.136;11.062;2023-06-24T08:49:17;33.90;99.90
7388;DHT22;3735;50.136;11.062;2023-06-24T08:51:49;34.40;99.90
7388;DHT22;3735;50.136;11.062;2023-06-24T08:54:19;34.60;99.90
7388;DHT22;3735;50.136;11.062;2023-06-24T08:56:46;35.20;99.90
7388;DHT22;3735;50.136;11.062;2023-06-24T08:59:12;36.00;99.90
7388;DHT22;3735;50.136;11.062;2023-06-24T09:01:38;36.50;99.90
7388;DHT22;3735;50.136;11.062;2023-06-24T09:04:04;36.70;99.90
7388;DHT22;3735;50.136;11.062;2023-06-24T09:06:31;36.90;99.90
7388;DHT22;3735;50.136;11.062;2023-06-24T09:08:57;37.00;99.90
7388;DHT22;3735;50.136;11.062;2023-06-24T09:11:27;36.90;99.90
7388;DHT22;3735;50.136;11.062;2023-06-24T09:13:58;37.20;99.90
7388;DHT22;3735;50.136;11.062;2023-06-24T09:16:25;37.00;99.90
7388;DHT22;3735;50.136;11.062;2023-06-24T09:18:52;37.00;99.90
7388;DHT22;3735;50.136;11.062;2023-06-24T09:23:56;37.20;99.90
7388;DHT22;3735;50.136;11.062;2023-06-24T09:26:27;37.10;99.90
7388;DHT22;3735;50.136;11.062;2023-06-24T09:28:55;37.20;99.90
7388;DHT22;3735;50.136;11.062;2023-06-24T09:31:23;37.20;99.90
7388;DHT22;3735;50.136;11.062;2023-06-24T09:33:49;37.20;99.90
7388;DHT22;3735;50.136;11.062;2023-06-24T09:36:15;37.40;99.90
7388;DHT22;3735;50.136;11.062;2023-06-24T09:38:42;37.50;99.90
7388;DHT22;3735;50.136;11.062;2023-06-24T09:41:11;37.50;99.90
7388;DHT22;3735;50.136;11.062;2023-06-24T09:43:42;37.60;99.90
7388;DHT22;3735;50.136;11.062;2023-06-24T09:46:10;37.80;99.90
7388;DHT22;3735;50.136;11.062;2023-06-24T09:48:36;37.80;99.90
7388;DHT22;3735;50.136;11.062;2023-06-24T09:51:03;38.00;99.90
7388;DHT22;3735;50.136;11.062;2023-06-24T09:53:34;38.20;99.90
7388;DHT22;3735;50.136;11.062;2023-06-24T09:56:03;38.00;99.90
7388;DHT22;3735;50.136;11.062;2023-06-24T09:58:32;37.70;99.90
7388;DHT22;3735;50.136;11.062;2023-06-24T10:01:04;37.80;99.90
7388;DHT22;3735;50.136;11.062;2023-06-24T10:03:36;38.30;99.90
7388;DHT22;3735;50.136;11.062;2023-06-24T10:06:03;38.60;99.90
7388;DHT22;3735;50.136;11.062;2023-06-24T10:08:31;38.70;99.90
7388;DHT22;3735;50.136;11.062;2023-06-24T10:11:00;39.00;99.90
7388;DHT22;3735;50.136;11.062;2023-06-24T10:13:27;39.00;99.90
7388;DHT22;3735;50.136;11.062;2023-06-24T10:15:57;39.10;99.90
7388;DHT22;3735;50.136;11.062;2023-06-24T10:18:38;38.40;99.90
7388;DHT22;3735;50.136;11.062;2023-06-24T10:21:05;36.90;99.90
7388;DHT22;3735;50.136;11.062;2023-06-24T10:26:35;37.70;99.90
7388;DHT22;3735;50.136;11.062;2023-06-24T10:31:54;38.70;99.90
7388;DHT22;3735;50.136;11.062;2023-06-24T10:47:35;38.50;99.90
7388;DHT22;3735;50.136;11.062;2023-06-24T10:50:04;38.70;99.90
7388;DHT22;3735;50.136;11.062;2023-06-24T10:52:31;38.80;99.90
7388;DHT22;3735;50.136;11.062;2023-06-24T10:54:58;38.70;99.90
7388;DHT22;3735;50.136;11.062;2023-06-24T10:57:26;38.90;99.90
7388;DHT22;3735;50.136;11.062;2023-06-24T10:59:54;38.80;99.90
7388;DHT22;3735;50.136;11.062;2023-06-24T11:02:26;38.70;99.90
7388;DHT22;3735;50.136;11.062;2023-06-24T11:07:22;39.30;99.90
7388;DHT22;3735;50.136;11.062;2023-06-24T11:09:54;39.80;99.90
7388;DHT22;3735;50.136;11.062;2023-06-24T11:12:26;39.40;99.90
7388;DHT22;3735;50.136;11.062;2023-06-24T11:15:05;39.30;99.90
7388;DHT22;3735;50.136;11.062;2023-06-24T11:17:36;39.50;99.90
7388;DHT22;3735;50.136;11.062;2023-06-24T11:20:07;39.40;99.90
7388;DHT22;3735;50.136;11.062;2023-06-24T11:22:37;39.20;99.90
7388;DHT22;3735;50.136;11.062;2023-06-24T11:25:06;39.30;99.90
7388;DHT22;3735;50.136;11.062;2023-06-24T11:27:39;39.50;99.90
7388;DHT22;3735;50.136;11.062;2023-06-24T11:30:05;39.80;99.90
7388;DHT22;3735;50.136;11.062;2023-06-24T11:32:39;40.20;99.90
7388;DHT22;3735;50.136;11.062;2023-06-24T11:35:08;40.50;99.90
7388;DHT22;3735;50.136;11.062;2023-06-24T11:37:35;40.70;99.90
7388;DHT22;3735;50.136;11.062;2023-06-24T11:40:06;40.40;99.90
7388;DHT22;3735;50.136;11.062;2023-06-24T11:42:38;40.30;99.90
7388;DHT22;3735;50.136;11.062;2023-06-24T11:45:07;39.70;99.90
7388;DHT22;3735;50.136;11.062;2023-06-24T11:47:37;39.90;99.90
7388;DHT22;3735;50.136;11.062;2023-06-24T11:50:05;40.00;99.90
7388;DHT22;3735;50.136;11.062;2023-06-24T11:55:01;40.00;99.90
7388;DHT22;3735;50.136;11.062;2023-06-24T11:57:47;39.90;99.90
7388;DHT22;3735;50.136;11.062;2023-06-24T12:00:30;39.60;99.90
7388;DHT22;3735;50.136;11.062;2023-06-24T12:03:07;39.50;99.90
7388;DHT22;3735;50.136;11.062;2023-06-24T12:05:36;39.20;99.90
7388;DHT22;3735;50.136;11.062;2023-06-24T12:08:03;39.70;99.90
7388;DHT22;3735;50.136;11.062;2023-06-24T12:10:31;39.70;99.90
7388;DHT22;3735;50.136;11.062;2023-06-24T12:12:59;39.80;99.90
7388;DHT22;3735;50.136;11.062;2023-06-24T12:15:27;39.60;99.90
7388;DHT22;3735;50.136;11.062;2023-06-24T12:17:53;39.80;99.90
7388;DHT22;3735;50.136;11.062;2023-06-24T12:20:19;39.80;99.90
7388;DHT22;3735;50.136;11.062;2023-06-24T12:22:47;39.30;99.90
7388;DHT22;3735;50.136;11.062;2023-06-24T12:25:13;39.20;99.90
7388;DHT22;3735;50.136;11.062;2023-06-24T12:27:42;39.50;99.90
7388;DHT22;3735;50.136;11.062;2023-06-24T12:30:09;39.80;99.90
7388;DHT22;3735;50.136;11.062;2023-06-24T12:32:36;40.20;99.90
7388;DHT22;3735;50.136;11.062;2023-06-24T12:35:03;40.80;99.90
7388;DHT22;3735;50.136;11.062;2023-06-24T12:37:33;41.10;99.90
7388;DHT22;3735;50.136;11.062;2023-06-24T12:40:00;39.70;99.90
7388;DHT22;3735;50.136;11.062;2023-06-24T12:42:26;38.50;99.90
7388;DHT22;3735;50.136;11.062;2023-06-24T12:44:53;38.40;99.90
7388;DHT22;3735;50.136;11.062;2023-06-24T12:47:19;37.00;99.90
7388;DHT22;3735;50.136;11.062;2023-06-24T12:49:45;35.50;99.90
7388;DHT22;3735;50.136;11.062;2023-06-24T12:52:12;34.30;99.90
7388;DHT22;3735;50.136;11.062;2023-06-24T12:54:39;35.00;99.90
7388;DHT22;3735;50.136;11.062;2023-06-24T12:57:05;36.20;99.90
7388;DHT22;3735;50.136;11.062;2023-06-24T12:59:31;37.40;99.90
7388;DHT22;3735;50.136;11.062;2023-06-24T13:01:57;38.10;99.90
7388;DHT22;3735;50.136;11.062;2023-06-24T13:04:22;38.90;99.90
7388;DHT22;3735;50.136;11.062;2023-06-24T13:06:52;39.50;99.90
7388;DHT22;3735;50.136;11.062;2023-06-24T13:09:19;39.70;99.90
7388;DHT22;3735;50.136;11.062;2023-06-24T13:11:45;39.50;99.90
7388;DHT22;3735;50.136;11.062;2023-06-24T13:14:12;39.50;99.90
7388;DHT22;3735;50.136;11.062;2023-06-24T13:16:39;39.40;99.90
7388;DHT22;3735;50.136;11.062;2023-06-24T13:19:05;39.10;99.90
7388;DHT22;3735;50.136;11.062;2023-06-24T13:21:31;39.50;99.90
7388;DHT22;3735;50.136;11.062;2023-06-24T13:23:57;39.70;99.90
7388;DHT22;3735;50.136;11.062;2023-06-24T13:26:23;39.80;99.90
7388;DHT22;3735;50.136;11.062;2023-06-24T13:28:49;40.00;99.90
7388;DHT22;3735;50.136;11.062;2023-06-24T13:31:15;40.20;99.90
7388;DHT22;3735;50.136;11.062;2023-06-24T13:33:41;40.10;99.90
7388;DHT22;3735;50.136;11.062;2023-06-24T13:36:08;40.10;99.90
7388;DHT22;3735;50.136;11.062;2023-06-24T13:38:38;40.00;99.90
7388;DHT22;3735;50.136;11.062;2023-06-24T13:41:04;39.80;99.90
7388;DHT22;3735;50.136;11.062;2023-06-24T13:43:30;39.50;99.90
7388;DHT22;3735;50.136;11.062;2023-06-24T13:45:56;39.50;99.90
7388;DHT22;3735;50.136;11.062;2023-06-24T13:48:22;39.20;99.90
7388;DHT22;3735;50.136;11.062;2023-06-24T13:50:48;38.90;99.90
7388;DHT22;3735;50.136;11.062;2023-06-24T13:53:14;38.60;99.90
7388;DHT22;3735;50.136;11.062;2023-06-24T13:55:40;39.00;99.90
7388;DHT22;3735;50.136;11.062;2023-06-24T13:58:06;38.90;99.90
7388;DHT22;3735;50.136;11.062;2023-06-24T14:00:31;38.50;99.90
7388;DHT22;3735;50.136;11.062;2023-06-24T14:02:57;38.00;99.90
7388;DHT22;3735;50.136;11.062;2023-06-24T14:05:23;38.20;99.90
7388;DHT22;3735;50.136;11.062;2023-06-24T14:07:48;37.30;99.90
7388;DHT22;3735;50.136;11.062;2023-06-24T14:10:14;36.90;99.90
7388;DHT22;3735;50.136;11.062;2023-06-24T14:12:40;36.90;99.90
7388;DHT22;3735;50.136;11.062;2023-06-24T14:15:08;37.40;99.90
7388;DHT22;3735;50.136;11.062;2023-06-24T14:17:35;37.70;99.90
7388;DHT22;3735;50.136;11.062;2023-06-24T14:20:01;37.70;99.90
7388;DHT22;3735;50.136;11.062;2023-06-24T14:22:26;37.60;99.90
7388;DHT22;3735;50.136;11.062;2023-06-24T14:24:52;37.80;99.90
7388;DHT22;3735;50.136;11.062;2023-06-24T14:27:18;38.00;99.90
7388;DHT22;3735;50.136;11.062;2023-06-24T14:29:44;38.30;99.90
7388;DHT22;3735;50.136;11.062;2023-06-24T14:32:09;38.70;99.90
7388;DHT22;3735;50.136;11.062;2023-06-24T14:34:35;38.80;99.90
7388;DHT22;3735;50.136;11.062;2023-06-24T14:37:01;38.70;99.90
7388;DHT22;3735;50.136;11.062;2023-06-24T14:39:27;38.40;99.90
7388;DHT22;3735;50.136;11.062;2023-06-24T14:41:53;38.60;99.90
7388;DHT22;3735;50.136;11.062;2023-06-24T14:44:19;38.90;99.90
7388;DHT22;3735;50.136;11.062;2023-06-24T14:46:45;38.90;99.90
7388;DHT22;3735;50.136;11.062;2023-06-24T14:49:11;38.80;99.90
7388;DHT22;3735;50.136;11.062;2023-06-24T14:51:36;39.20;99.90
7388;DHT22;3735;50.136;11.062;2023-06-24T14:54:02;38.90;99.90
7388;DHT22;3735;50.136;11.062;2023-06-24T14:56:28;37.40;99.90
7388;DHT22;3735;50.136;11.062;2023-06-24T14:58:53;36.00;99.90
7388;DHT22;3735;50.136;11.062;2023-06-24T15:01:19;35.70;99.90
7388;DHT22;3735;50.136;11.062;2023-06-24T15:03:45;36.50;99.90
7388;DHT22;3735;50.136;11.062;2023-06-24T15:06:11;36.90;99.90
7388;DHT22;3735;50.136;11.062;2023-06-24T15:08:37;37.20;99.90
7388;DHT22;3735;50.136;11.062;2023-06-24T15:11:02;37.60;99.90
7388;DHT22;3735;50.136;11.062;2023-06-24T15:13:28;37.80;99.90
7388;DHT22;3735;50.136;11.062;2023-06-24T15:15:54;38.00;99.90
7388;DHT22;3735;50.136;11.062;2023-06-24T15:18:22;38.00;99.90
7388;DHT22;3735;50.136;11.062;2023-06-24T15:20:50;38.10;99.90
7388;DHT22;3735;50.136;11.062;2023-06-24T15:23:16;38.00;99.90
7388;DHT22;3735;50.136;11.062;2023-06-24T15:25:42;38.10;99.90
7388;DHT22;3735;50.136;11.062;2023-06-24T15:28:08;38.00;99.90
7388;DHT22;3735;50.136;11.062;2023-06-24T15:30:33;38.00;99.90
7388;DHT22;3735;50.136;11.062;2023-06-24T15:32:59;38.00;99.90
7388;DHT22;3735;50.136;11.062;2023-06-24T15:35:25;37.70;99.90
7388;DHT22;3735;50.136;11.062;2023-06-24T15:37:51;37.50;99.90
7388;DHT22;3735;50.136;11.062;2023-06-24T15:40:16;37.30;99.90
7388;DHT22;3735;50.136;11.062;2023-06-24T15:42:42;36.90;99.90
7388;DHT22;3735;50.136;11.062;2023-06-24T15:45:08;37.00;99.90
7388;DHT22;3735;50.136;11.062;2023-06-24T15:47:34;36.90;99.90
7388;DHT22;3735;50.136;11.062;2023-06-24T15:50:00;36.50;99.90
7388;DHT22;3735;50.136;11.062;2023-06-24T15:52:26;36.00;99.90
7388;DHT22;3735;50.136;11.062;2023-06-24T15:54:51;35.10;99.90
7388;DHT22;3735;50.136;11.062;2023-06-24T15:57:17;33.90;99.90
7388;DHT22;3735;50.136;11.062;2023-06-24T15:59:43;33.10;99.90
7388;DHT22;3735;50.136;11.062;2023-06-24T16:02:09;32.60;99.90
7388;DHT22;3735;50.136;11.062;2023-06-24T16:04:34;32.40;99.90
7388;DHT22;3735;50.136;11.062;2023-06-24T16:07:00;32.00;99.90
7388;DHT22;3735;50.136;11.062;2023-06-24T16:09:26;31.70;99.90
7388;DHT22;3735;50.136;11.062;2023-06-24T16:11:54;31.40;99.90
7388;DHT22;3735;50.136;11.062;2023-06-24T16:14:20;31.00;99.90
7388;DHT22;3735;50.136;11.062;2023-06-24T16:16:45;30.70;99.90
7388;DHT22;3735;50.136;11.062;2023-06-24T16:19:12;30.50;99.90